Airport ICAO


11:59 UTC

21°C

Clear skies


An affordable passengers' Moving Map for your aircraft. Made for the iPad and the iPhone
More information here

LFMN Cote D'Azur


Nice FRANCE   VFR CAVOK


METAR LFMN 191130Z VRB03KT CAVOK 21/10 Q1026 NOSIG 0h29min

TAF LFMN 190800Z 1909/2015 33010KT CAVOK BECMG 1909/1911 16006KT BECMG 1918/1920 33010KT BECMG 2009/2011 21006KT 3h59min





NOTAMS

OPEN